sensor_id;sensor_type;location;lat;lon;timestamp;P1;durP1;ratioP1;P2;durP2;ratioP2
81273;SDS011;70753;47.908;11.274;2023-07-09T00:00:54;7.20;;;3.13;;
81273;SDS011;70753;47.908;11.274;2023-07-09T00:03:19;7.68;;;3.40;;
81273;SDS011;70753;47.908;11.274;2023-07-09T00:05:45;8.55;;;3.33;;
81273;SDS011;70753;47.908;11.274;2023-07-09T00:08:14;7.18;;;3.58;;
81273;SDS011;70753;47.908;11.274;2023-07-09T00:10:50;8.07;;;3.30;;
81273;SDS011;70753;47.908;11.274;2023-07-09T00:13:17;10.18;;;3.35;;
81273;SDS011;70753;47.908;11.274;2023-07-09T00:15:42;8.00;;;3.25;;
81273;SDS011;70753;47.908;11.274;2023-07-09T00:18:08;8.93;;;3.40;;
81273;SDS011;70753;47.908;11.274;2023-07-09T00:20:34;6.95;;;3.42;;
81273;SDS011;70753;47.908;11.274;2023-07-09T00:22:59;6.75;;;3.25;;
81273;SDS011;70753;47.908;11.274;2023-07-09T00:25:25;8.27;;;3.67;;
81273;SDS011;70753;47.908;11.274;2023-07-09T00:27:50;9.63;;;3.63;;
81273;SDS011;70753;47.908;11.274;2023-07-09T00:30:18;9.52;;;3.83;;
81273;SDS011;70753;47.908;11.274;2023-07-09T00:32:44;7.38;;;3.53;;
81273;SDS011;70753;47.908;11.274;2023-07-09T00:35:10;8.07;;;3.97;;
81273;SDS011;70753;47.908;11.274;2023-07-09T00:37:36;7.97;;;3.90;;
81273;SDS011;70753;47.908;11.274;2023-07-09T00:40:03;7.93;;;3.97;;
81273;SDS011;70753;47.908;11.274;2023-07-09T00:42:29;7.35;;;3.50;;
81273;SDS011;70753;47.908;11.274;2023-07-09T00:44:55;9.02;;;3.75;;
81273;SDS011;70753;47.908;11.274;2023-07-09T00:47:26;8.13;;;4.00;;
81273;SDS011;70753;47.908;11.274;2023-07-09T00:50:02;7.25;;;3.63;;
81273;SDS011;70753;47.908;11.274;2023-07-09T00:52:35;9.00;;;4.45;;
81273;SDS011;70753;47.908;11.274;2023-07-09T00:55:05;10.52;;;4.10;;
81273;SDS011;70753;47.908;11.274;2023-07-09T00:57:35;9.75;;;3.92;;
81273;SDS011;70753;47.908;11.274;2023-07-09T01:00:04;8.70;;;3.90;;
81273;SDS011;70753;47.908;11.274;2023-07-09T01:02:36;9.10;;;4.00;;
81273;SDS011;70753;47.908;11.274;2023-07-09T01:05:02;9.93;;;4.18;;
81273;SDS011;70753;47.908;11.274;2023-07-09T01:07:29;8.63;;;4.18;;
81273;SDS011;70753;47.908;11.274;2023-07-09T01:09:55;8.82;;;3.97;;
81273;SDS011;70753;47.908;11.274;2023-07-09T01:12:21;9.30;;;3.75;;
81273;SDS011;70753;47.908;11.274;2023-07-09T01:14:47;8.90;;;3.70;;
81273;SDS011;70753;47.908;11.274;2023-07-09T01:17:13;8.57;;;3.78;;
81273;SDS011;70753;47.908;11.274;2023-07-09T01:19:41;9.05;;;4.03;;
81273;SDS011;70753;47.908;11.274;2023-07-09T01:22:10;6.75;;;3.78;;
81273;SDS011;70753;47.908;11.274;2023-07-09T01:24:52;9.20;;;4.22;;
81273;SDS011;70753;47.908;11.274;2023-07-09T01:27:22;9.68;;;4.60;;
81273;SDS011;70753;47.908;11.274;2023-07-09T01:29:49;8.73;;;4.15;;
81273;SDS011;70753;47.908;11.274;2023-07-09T01:32:15;7.75;;;4.03;;
81273;SDS011;70753;47.908;11.274;2023-07-09T01:34:42;7.72;;;4.22;;
81273;SDS011;70753;47.908;11.274;2023-07-09T01:37:07;7.85;;;4.07;;
81273;SDS011;70753;47.908;11.274;2023-07-09T01:39:34;9.45;;;4.43;;
81273;SDS011;70753;47.908;11.274;2023-07-09T01:42:00;8.82;;;4.13;;
81273;SDS011;70753;47.908;11.274;2023-07-09T01:44:25;7.90;;;4.03;;
81273;SDS011;70753;47.908;11.274;2023-07-09T01:46:50;6.22;;;3.78;;
81273;SDS011;70753;47.908;11.274;2023-07-09T01:49:16;6.25;;;3.67;;
81273;SDS011;70753;47.908;11.274;2023-07-09T01:51:42;8.07;;;3.88;;
81273;SDS011;70753;47.908;11.274;2023-07-09T01:54:07;7.20;;;3.60;;
81273;SDS011;70753;47.908;11.274;2023-07-09T01:56:34;7.28;;;3.42;;
81273;SDS011;70753;47.908;11.274;2023-07-09T01:58:59;7.93;;;3.97;;
81273;SDS011;70753;47.908;11.274;2023-07-09T02:01:24;8.43;;;3.30;;
81273;SDS011;70753;47.908;11.274;2023-07-09T02:03:50;6.25;;;3.55;;
81273;SDS011;70753;47.908;11.274;2023-07-09T02:06:15;7.78;;;4.05;;
81273;SDS011;70753;47.908;11.274;2023-07-09T02:08:41;8.73;;;3.65;;
81273;SDS011;70753;47.908;11.274;2023-07-09T02:11:06;7.88;;;3.83;;
81273;SDS011;70753;47.908;11.274;2023-07-09T02:13:33;7.60;;;3.50;;
81273;SDS011;70753;47.908;11.274;2023-07-09T02:15:58;6.90;;;3.45;;
81273;SDS011;70753;47.908;11.274;2023-07-09T02:18:23;8.00;;;3.40;;
81273;SDS011;70753;47.908;11.274;2023-07-09T02:20:49;6.22;;;3.22;;
81273;SDS011;70753;47.908;11.274;2023-07-09T02:23:14;7.60;;;3.72;;
81273;SDS011;70753;47.908;11.274;2023-07-09T02:25:40;8.10;;;3.83;;
81273;SDS011;70753;47.908;11.274;2023-07-09T02:28:05;8.00;;;3.53;;
81273;SDS011;70753;47.908;11.274;2023-07-09T02:30:32;8.00;;;3.50;;
81273;SDS011;70753;47.908;11.274;2023-07-09T02:32:57;8.65;;;3.28;;
81273;SDS011;70753;47.908;11.274;2023-07-09T02:35:22;7.43;;;3.40;;
81273;SDS011;70753;47.908;11.274;2023-07-09T02:37:48;6.90;;;3.28;;
81273;SDS011;70753;47.908;11.274;2023-07-09T02:40:14;7.88;;;3.20;;
81273;SDS011;70753;47.908;11.274;2023-07-09T02:42:40;7.88;;;4.40;;
81273;SDS011;70753;47.908;11.274;2023-07-09T02:45:06;7.10;;;3.40;;
81273;SDS011;70753;47.908;11.274;2023-07-09T02:47:35;7.85;;;3.75;;
81273;SDS011;70753;47.908;11.274;2023-07-09T02:50:00;7.25;;;3.60;;
81273;SDS011;70753;47.908;11.274;2023-07-09T02:52:26;8.60;;;3.00;;
81273;SDS011;70753;47.908;11.274;2023-07-09T02:54:51;8.73;;;3.45;;
81273;SDS011;70753;47.908;11.274;2023-07-09T02:57:17;8.15;;;3.42;;
81273;SDS011;70753;47.908;11.274;2023-07-09T02:59:42;5.82;;;3.20;;
81273;SDS011;70753;47.908;11.274;2023-07-09T03:02:08;9.23;;;3.50;;
81273;SDS011;70753;47.908;11.274;2023-07-09T03:04:36;7.43;;;3.00;;
81273;SDS011;70753;47.908;11.274;2023-07-09T03:07:02;8.18;;;3.47;;
81273;SDS011;70753;47.908;11.274;2023-07-09T03:09:28;7.45;;;3.40;;
81273;SDS011;70753;47.908;11.274;2023-07-09T03:11:53;6.60;;;3.10;;
81273;SDS011;70753;47.908;11.274;2023-07-09T03:14:19;6.80;;;3.28;;
81273;SDS011;70753;47.908;11.274;2023-07-09T03:16:45;7.18;;;3.15;;
81273;SDS011;70753;47.908;11.274;2023-07-09T03:19:10;5.63;;;3.05;;
81273;SDS011;70753;47.908;11.274;2023-07-09T03:21:38;6.03;;;3.08;;
81273;SDS011;70753;47.908;11.274;2023-07-09T03:24:04;5.20;;;3.13;;
81273;SDS011;70753;47.908;11.274;2023-07-09T03:26:30;7.75;;;3.40;;
81273;SDS011;70753;47.908;11.274;2023-07-09T03:28:55;7.40;;;3.53;;
81273;SDS011;70753;47.908;11.274;2023-07-09T03:31:21;11.55;;;3.85;;
81273;SDS011;70753;47.908;11.274;2023-07-09T03:33:47;6.65;;;3.00;;
81273;SDS011;70753;47.908;11.274;2023-07-09T03:36:13;5.82;;;3.05;;
81273;SDS011;70753;47.908;11.274;2023-07-09T03:38:40;6.63;;;3.45;;
81273;SDS011;70753;47.908;11.274;2023-07-09T03:41:06;6.85;;;3.50;;
81273;SDS011;70753;47.908;11.274;2023-07-09T03:43:31;8.75;;;3.55;;
81273;SDS011;70753;47.908;11.274;2023-07-09T03:45:57;7.68;;;3.60;;
81273;SDS011;70753;47.908;11.274;2023-07-09T03:48:22;6.68;;;3.08;;
81273;SDS011;70753;47.908;11.274;2023-07-09T03:50:48;8.40;;;4.03;;
81273;SDS011;70753;47.908;11.274;2023-07-09T03:53:14;8.57;;;3.55;;
81273;SDS011;70753;47.908;11.274;2023-07-09T03:55:42;6.93;;;3.50;;
81273;SDS011;70753;47.908;11.274;2023-07-09T03:58:10;7.40;;;3.58;;
81273;SDS011;70753;47.908;11.274;2023-07-09T04:00:35;7.15;;;3.33;;
81273;SDS011;70753;47.908;11.274;2023-07-09T04:03:01;6.03;;;3.15;;
81273;SDS011;70753;47.908;11.274;2023-07-09T04:05:26;6.80;;;3.22;;
81273;SDS011;70753;47.908;11.274;2023-07-09T04:07:53;7.72;;;3.35;;
81273;SDS011;70753;47.908;11.274;2023-07-09T04:10:18;6.90;;;3.05;;
81273;SDS011;70753;47.908;11.274;2023-07-09T04:12:45;6.53;;;3.10;;
81273;SDS011;70753;47.908;11.274;2023-07-09T04:15:11;7.93;;;3.25;;
81273;SDS011;70753;47.908;11.274;2023-07-09T04:17:37;6.80;;;2.70;;
81273;SDS011;70753;47.908;11.274;2023-07-09T04:20:06;7.18;;;2.88;;
81273;SDS011;70753;47.908;11.274;2023-07-09T04:22:32;8.98;;;3.00;;
81273;SDS011;70753;47.908;11.274;2023-07-09T04:24:58;5.95;;;2.80;;
81273;SDS011;70753;47.908;11.274;2023-07-09T04:27:23;6.93;;;2.90;;
81273;SDS011;70753;47.908;11.274;2023-07-09T04:29:50;6.85;;;2.90;;
81273;SDS011;70753;47.908;11.274;2023-07-09T04:32:16;6.63;;;2.97;;
81273;SDS011;70753;47.908;11.274;2023-07-09T04:34:41;6.95;;;2.80;;
81273;SDS011;70753;47.908;11.274;2023-07-09T04:37:07;6.85;;;2.90;;
81273;SDS011;70753;47.908;11.274;2023-07-09T04:39:35;6.93;;;2.88;;
81273;SDS011;70753;47.908;11.274;2023-07-09T04:42:00;6.65;;;2.92;;
81273;SDS011;70753;47.908;11.274;2023-07-09T04:44:26;7.30;;;3.63;;
81273;SDS011;70753;47.908;11.274;2023-07-09T04:46:53;7.22;;;2.90;;
81273;SDS011;70753;47.908;11.274;2023-07-09T04:49:18;6.85;;;2.95;;
81273;SDS011;70753;47.908;11.274;2023-07-09T04:51:44;5.03;;;2.60;;
81273;SDS011;70753;47.908;11.274;2023-07-09T04:54:09;7.38;;;3.03;;
81273;SDS011;70753;47.908;11.274;2023-07-09T04:56:35;6.70;;;3.00;;
81273;SDS011;70753;47.908;11.274;2023-07-09T04:59:00;8.20;;;3.30;;
81273;SDS011;70753;47.908;11.274;2023-07-09T05:01:26;6.00;;;2.75;;
81273;SDS011;70753;47.908;11.274;2023-07-09T05:03:53;7.97;;;3.10;;
81273;SDS011;70753;47.908;11.274;2023-07-09T05:06:19;6.90;;;3.10;;
81273;SDS011;70753;47.908;11.274;2023-07-09T05:08:44;8.25;;;3.30;;
81273;SDS011;70753;47.908;11.274;2023-07-09T05:11:09;6.45;;;3.28;;
81273;SDS011;70753;47.908;11.274;2023-07-09T05:13:35;6.97;;;2.83;;
81273;SDS011;70753;47.908;11.274;2023-07-09T05:16:00;8.27;;;3.28;;
81273;SDS011;70753;47.908;11.274;2023-07-09T05:18:25;8.05;;;3.17;;
81273;SDS011;70753;47.908;11.274;2023-07-09T05:20:52;6.22;;;3.10;;
81273;SDS011;70753;47.908;11.274;2023-07-09T05:23:18;6.32;;;2.75;;
81273;SDS011;70753;47.908;11.274;2023-07-09T05:25:44;6.63;;;3.47;;
81273;SDS011;70753;47.908;11.274;2023-07-09T05:28:09;8.65;;;3.35;;
81273;SDS011;70753;47.908;11.274;2023-07-09T05:30:35;6.65;;;3.05;;
81273;SDS011;70753;47.908;11.274;2023-07-09T05:33:00;6.95;;;3.10;;
81273;SDS011;70753;47.908;11.274;2023-07-09T05:35:26;6.68;;;3.13;;
81273;SDS011;70753;47.908;11.274;2023-07-09T05:37:53;5.45;;;2.78;;
81273;SDS011;70753;47.908;11.274;2023-07-09T05:40:20;5.78;;;2.85;;
81273;SDS011;70753;47.908;11.274;2023-07-09T05:42:46;7.05;;;3.33;;
81273;SDS011;70753;47.908;11.274;2023-07-09T05:45:11;9.20;;;3.60;;
81273;SDS011;70753;47.908;11.274;2023-07-09T05:47:36;7.47;;;3.53;;
81273;SDS011;70753;47.908;11.274;2023-07-09T05:50:02;11.07;;;3.80;;
81273;SDS011;70753;47.908;11.274;2023-07-09T05:52:28;6.88;;;3.40;;
81273;SDS011;70753;47.908;11.274;2023-07-09T05:54:55;7.97;;;3.53;;
81273;SDS011;70753;47.908;11.274;2023-07-09T05:57:21;8.88;;;3.78;;
81273;SDS011;70753;47.908;11.274;2023-07-09T05:59:47;7.22;;;3.40;;
81273;SDS011;70753;47.908;11.274;2023-07-09T06:02:13;8.02;;;3.25;;
81273;SDS011;70753;47.908;11.274;2023-07-09T06:04:40;8.05;;;3.45;;
81273;SDS011;70753;47.908;11.274;2023-07-09T06:07:05;9.65;;;3.70;;
81273;SDS011;70753;47.908;11.274;2023-07-09T06:09:31;7.82;;;3.05;;
81273;SDS011;70753;47.908;11.274;2023-07-09T06:11:58;8.10;;;3.22;;
81273;SDS011;70753;47.908;11.274;2023-07-09T06:14:24;7.93;;;3.53;;
81273;SDS011;70753;47.908;11.274;2023-07-09T06:16:50;6.97;;;2.92;;
81273;SDS011;70753;47.908;11.274;2023-07-09T06:19:15;7.18;;;3.22;;
81273;SDS011;70753;47.908;11.274;2023-07-09T06:21:41;7.13;;;3.60;;
81273;SDS011;70753;47.908;11.274;2023-07-09T06:24:06;8.05;;;3.72;;
81273;SDS011;70753;47.908;11.274;2023-07-09T06:26:32;11.32;;;4.13;;
81273;SDS011;70753;47.908;11.274;2023-07-09T06:28:59;8.68;;;3.95;;
81273;SDS011;70753;47.908;11.274;2023-07-09T06:31:25;6.88;;;4.28;;
81273;SDS011;70753;47.908;11.274;2023-07-09T06:33:50;14.07;;;4.25;;
81273;SDS011;70753;47.908;11.274;2023-07-09T06:36:17;8.65;;;4.13;;
81273;SDS011;70753;47.908;11.274;2023-07-09T06:38:43;9.15;;;3.97;;
81273;SDS011;70753;47.908;11.274;2023-07-09T06:41:08;8.23;;;4.50;;
81273;SDS011;70753;47.908;11.274;2023-07-09T06:43:34;7.32;;;3.78;;
81273;SDS011;70753;47.908;11.274;2023-07-09T06:46:01;6.85;;;3.97;;
81273;SDS011;70753;47.908;11.274;2023-07-09T06:48:27;7.45;;;3.63;;
81273;SDS011;70753;47.908;11.274;2023-07-09T06:50:54;7.20;;;4.13;;
81273;SDS011;70753;47.908;11.274;2023-07-09T06:53:20;8.50;;;3.90;;
81273;SDS011;70753;47.908;11.274;2023-07-09T06:55:46;6.75;;;3.60;;
81273;SDS011;70753;47.908;11.274;2023-07-09T06:58:12;7.78;;;3.90;;
81273;SDS011;70753;47.908;11.274;2023-07-09T07:00:38;9.38;;;4.35;;
81273;SDS011;70753;47.908;11.274;2023-07-09T07:03:08;7.47;;;3.90;;
81273;SDS011;70753;47.908;11.274;2023-07-09T07:05:34;6.80;;;3.85;;
81273;SDS011;70753;47.908;11.274;2023-07-09T07:08:00;7.10;;;3.15;;
81273;SDS011;70753;47.908;11.274;2023-07-09T07:10:26;6.45;;;3.75;;
81273;SDS011;70753;47.908;11.274;2023-07-09T07:12:51;7.18;;;3.53;;
81273;SDS011;70753;47.908;11.274;2023-07-09T07:15:17;6.68;;;3.30;;
81273;SDS011;70753;47.908;11.274;2023-07-09T07:17:43;6.97;;;3.78;;
81273;SDS011;70753;47.908;11.274;2023-07-09T07:20:11;7.30;;;3.80;;
81273;SDS011;70753;47.908;11.274;2023-07-09T07:22:38;7.18;;;3.67;;
81273;SDS011;70753;47.908;11.274;2023-07-09T07:25:03;7.13;;;3.40;;
81273;SDS011;70753;47.908;11.274;2023-07-09T07:27:29;9.27;;;4.20;;
81273;SDS011;70753;47.908;11.274;2023-07-09T07:29:55;9.30;;;3.75;;
81273;SDS011;70753;47.908;11.274;2023-07-09T07:32:20;6.75;;;3.75;;
81273;SDS011;70753;47.908;11.274;2023-07-09T07:34:46;7.60;;;3.33;;
81273;SDS011;70753;47.908;11.274;2023-07-09T07:37:13;7.95;;;3.25;;
81273;SDS011;70753;47.908;11.274;2023-07-09T07:39:39;6.82;;;3.97;;
81273;SDS011;70753;47.908;11.274;2023-07-09T07:42:04;24.48;;;8.07;;
81273;SDS011;70753;47.908;11.274;2023-07-09T07:44:30;10.73;;;4.85;;
81273;SDS011;70753;47.908;11.274;2023-07-09T07:46:55;8.88;;;4.28;;
81273;SDS011;70753;47.908;11.274;2023-07-09T07:49:21;7.85;;;4.10;;
81273;SDS011;70753;47.908;11.274;2023-07-09T07:51:46;8.85;;;3.80;;
81273;SDS011;70753;47.908;11.274;2023-07-09T07:54:13;7.13;;;3.70;;
81273;SDS011;70753;47.908;11.274;2023-07-09T07:56:38;8.45;;;3.70;;
81273;SDS011;70753;47.908;11.274;2023-07-09T07:59:04;6.72;;;3.63;;
81273;SDS011;70753;47.908;11.274;2023-07-09T08:01:30;12.85;;;4.13;;
81273;SDS011;70753;47.908;11.274;2023-07-09T08:03:55;9.18;;;4.47;;
81273;SDS011;70753;47.908;11.274;2023-07-09T08:06:21;8.40;;;4.18;;
81273;SDS011;70753;47.908;11.274;2023-07-09T08:08:47;7.32;;;3.90;;
81273;SDS011;70753;47.908;11.274;2023-07-09T08:11:13;7.90;;;3.40;;
81273;SDS011;70753;47.908;11.274;2023-07-09T08:13:39;8.65;;;3.22;;
81273;SDS011;70753;47.908;11.274;2023-07-09T08:16:05;8.88;;;3.53;;
81273;SDS011;70753;47.908;11.274;2023-07-09T08:18:31;8.20;;;3.22;;
81273;SDS011;70753;47.908;11.274;2023-07-09T08:20:57;7.40;;;3.05;;
81273;SDS011;70753;47.908;11.274;2023-07-09T08:23:23;6.18;;;2.88;;
81273;SDS011;70753;47.908;11.274;2023-07-09T08:25:52;6.85;;;3.10;;
81273;SDS011;70753;47.908;11.274;2023-07-09T08:28:19;4.70;;;2.72;;
81273;SDS011;70753;47.908;11.274;2023-07-09T08:30:44;6.35;;;2.80;;
81273;SDS011;70753;47.908;11.274;2023-07-09T08:33:10;6.85;;;2.75;;
81273;SDS011;70753;47.908;11.274;2023-07-09T08:35:36;5.78;;;2.72;;
81273;SDS011;70753;47.908;11.274;2023-07-09T08:38:01;6.22;;;2.35;;
81273;SDS011;70753;47.908;11.274;2023-07-09T08:40:26;6.25;;;2.65;;
81273;SDS011;70753;47.908;11.274;2023-07-09T08:42:53;6.82;;;3.10;;
81273;SDS011;70753;47.908;11.274;2023-07-09T08:45:29;6.22;;;2.47;;
81273;SDS011;70753;47.908;11.274;2023-07-09T08:48:06;6.57;;;2.75;;
81273;SDS011;70753;47.908;11.274;2023-07-09T08:50:38;5.75;;;3.15;;
81273;SDS011;70753;47.908;11.274;2023-07-09T08:53:08;6.15;;;2.80;;
81273;SDS011;70753;47.908;11.274;2023-07-09T08:55:40;4.47;;;2.42;;
81273;SDS011;70753;47.908;11.274;2023-07-09T08:58:12;7.75;;;2.72;;
81273;SDS011;70753;47.908;11.274;2023-07-09T09:00:43;5.93;;;2.50;;
81273;SDS011;70753;47.908;11.274;2023-07-09T09:03:16;10.38;;;2.80;;
81273;SDS011;70753;47.908;11.274;2023-07-09T09:05:53;6.40;;;2.65;;
81273;SDS011;70753;47.908;11.274;2023-07-09T09:08:21;6.25;;;2.67;;
81273;SDS011;70753;47.908;11.274;2023-07-09T09:11:00;5.75;;;2.60;;
81273;SDS011;70753;47.908;11.274;2023-07-09T09:13:34;4.70;;;2.20;;
81273;SDS011;70753;47.908;11.274;2023-07-09T09:16:04;5.47;;;2.22;;
81273;SDS011;70753;47.908;11.274;2023-07-09T09:18:35;5.32;;;2.30;;
81273;SDS011;70753;47.908;11.274;2023-07-09T09:21:07;7.15;;;2.10;;
81273;SDS011;70753;47.908;11.274;2023-07-09T09:23:39;6.90;;;2.65;;
81273;SDS011;70753;47.908;11.274;2023-07-09T09:26:14;7.38;;;3.03;;
81273;SDS011;70753;47.908;11.274;2023-07-09T09:28:43;6.70;;;2.85;;
81273;SDS011;70753;47.908;11.274;2023-07-09T09:31:09;5.97;;;2.95;;
81273;SDS011;70753;47.908;11.274;2023-07-09T09:33:36;5.20;;;2.90;;
81273;SDS011;70753;47.908;11.274;2023-07-09T09:36:05;6.70;;;2.88;;
81273;SDS011;70753;47.908;11.274;2023-07-09T09:38:31;8.40;;;2.83;;
81273;SDS011;70753;47.908;11.274;2023-07-09T09:41:00;5.68;;;2.85;;
81273;SDS011;70753;47.908;11.274;2023-07-09T09:43:31;6.00;;;2.78;;
81273;SDS011;70753;47.908;11.274;2023-07-09T09:45:58;5.57;;;2.90;;
81273;SDS011;70753;47.908;11.274;2023-07-09T09:48:28;5.60;;;2.10;;
81273;SDS011;70753;47.908;11.274;2023-07-09T09:50:54;5.22;;;2.45;;
81273;SDS011;70753;47.908;11.274;2023-07-09T09:53:21;5.30;;;2.58;;
81273;SDS011;70753;47.908;11.274;2023-07-09T09:55:48;5.18;;;2.60;;
81273;SDS011;70753;47.908;11.274;2023-07-09T09:58:16;6.03;;;2.38;;
81273;SDS011;70753;47.908;11.274;2023-07-09T10:00:47;5.57;;;2.40;;
81273;SDS011;70753;47.908;11.274;2023-07-09T10:03:14;5.20;;;2.58;;
81273;SDS011;70753;47.908;11.274;2023-07-09T10:05:41;4.70;;;2.28;;
81273;SDS011;70753;47.908;11.274;2023-07-09T10:08:16;7.05;;;2.85;;
81273;SDS011;70753;47.908;11.274;2023-07-09T10:10:51;6.43;;;2.63;;
81273;SDS011;70753;47.908;11.274;2023-07-09T10:15:59;5.65;;;2.40;;
81273;SDS011;70753;47.908;11.274;2023-07-09T10:21:05;6.35;;;2.42;;
81273;SDS011;70753;47.908;11.274;2023-07-09T10:23:36;8.02;;;2.53;;
81273;SDS011;70753;47.908;11.274;2023-07-09T10:26:11;5.75;;;2.67;;
81273;SDS011;70753;47.908;11.274;2023-07-09T10:31:37;6.55;;;2.80;;
81273;SDS011;70753;47.908;11.274;2023-07-09T10:34:12;6.10;;;2.47;;
81273;SDS011;70753;47.908;11.274;2023-07-09T10:36:52;6.03;;;2.63;;
81273;SDS011;70753;47.908;11.274;2023-07-09T10:39:32;7.10;;;2.40;;
81273;SDS011;70753;47.908;11.274;2023-07-09T10:42:00;6.88;;;2.70;;
81273;SDS011;70753;47.908;11.274;2023-07-09T10:44:34;6.00;;;2.65;;
81273;SDS011;70753;47.908;11.274;2023-07-09T10:47:02;5.80;;;2.60;;
81273;SDS011;70753;47.908;11.274;2023-07-09T10:49:31;7.57;;;2.45;;
81273;SDS011;70753;47.908;11.274;2023-07-09T10:52:04;7.25;;;2.60;;
81273;SDS011;70753;47.908;11.274;2023-07-09T10:54:32;6.70;;;2.50;;
81273;SDS011;70753;47.908;11.274;2023-07-09T10:57:03;6.90;;;2.58;;
81273;SDS011;70753;47.908;11.274;2023-07-09T10:59:36;5.05;;;2.50;;
81273;SDS011;70753;47.908;11.274;2023-07-09T11:02:11;6.63;;;2.50;;
81273;SDS011;70753;47.908;11.274;2023-07-09T11:04:44;6.72;;;2.60;;
81273;SDS011;70753;47.908;11.274;2023-07-09T11:07:17;10.93;;;2.83;;
81273;SDS011;70753;47.908;11.274;2023-07-09T11:09:48;6.35;;;3.00;;
81273;SDS011;70753;47.908;11.274;2023-07-09T11:12:15;6.72;;;2.53;;
81273;SDS011;70753;47.908;11.274;2023-07-09T11:14:47;4.80;;;2.33;;
81273;SDS011;70753;47.908;11.274;2023-07-09T11:17:16;6.15;;;2.22;;
81273;SDS011;70753;47.908;11.274;2023-07-09T11:19:44;4.60;;;2.33;;
81273;SDS011;70753;47.908;11.274;2023-07-09T11:22:14;6.35;;;2.40;;
81273;SDS011;70753;47.908;11.274;2023-07-09T11:24:45;6.18;;;2.50;;
81273;SDS011;70753;47.908;11.274;2023-07-09T11:27:16;6.10;;;2.55;;
81273;SDS011;70753;47.908;11.274;2023-07-09T11:29:45;6.80;;;2.25;;
81273;SDS011;70753;47.908;11.274;2023-07-09T11:32:17;5.20;;;2.20;;
81273;SDS011;70753;47.908;11.274;2023-07-09T11:34:44;7.57;;;2.50;;
81273;SDS011;70753;47.908;11.274;2023-07-09T11:37:11;3.85;;;1.80;;
81273;SDS011;70753;47.908;11.274;2023-07-09T11:39:43;6.72;;;2.35;;
81273;SDS011;70753;47.908;11.274;2023-07-09T11:42:23;7.07;;;2.22;;
81273;SDS011;70753;47.908;11.274;2023-07-09T11:44:51;5.28;;;2.20;;
81273;SDS011;70753;47.908;11.274;2023-07-09T11:47:23;7.25;;;2.35;;
81273;SDS011;70753;47.908;11.274;2023-07-09T11:49:52;7.13;;;2.38;;
81273;SDS011;70753;47.908;11.274;2023-07-09T11:52:24;6.18;;;2.30;;
81273;SDS011;70753;47.908;11.274;2023-07-09T11:54:54;5.38;;;2.67;;
81273;SDS011;70753;47.908;11.274;2023-07-09T11:57:20;5.90;;;2.60;;
81273;SDS011;70753;47.908;11.274;2023-07-09T11:59:46;6.45;;;2.53;;
81273;SDS011;70753;47.908;11.274;2023-07-09T12:02:14;5.38;;;2.35;;
81273;SDS011;70753;47.908;11.274;2023-07-09T12:04:42;6.18;;;2.75;;
81273;SDS011;70753;47.908;11.274;2023-07-09T12:07:09;6.07;;;2.78;;
81273;SDS011;70753;47.908;11.274;2023-07-09T12:09:39;10.75;;;2.78;;
81273;SDS011;70753;47.908;11.274;2023-07-09T12:12:17;7.18;;;2.45;;
81273;SDS011;70753;47.908;11.274;2023-07-09T12:14:44;5.57;;;2.65;;
81273;SDS011;70753;47.908;11.274;2023-07-09T12:17:09;6.68;;;2.75;;
81273;SDS011;70753;47.908;11.274;2023-07-09T12:19:35;7.63;;;3.03;;
81273;SDS011;70753;47.908;11.274;2023-07-09T12:22:01;7.15;;;3.50;;
81273;SDS011;70753;47.908;11.274;2023-07-09T12:24:35;7.45;;;2.92;;
81273;SDS011;70753;47.908;11.274;2023-07-09T12:27:02;6.07;;;2.45;;
81273;SDS011;70753;47.908;11.274;2023-07-09T12:29:43;7.00;;;2.78;;
81273;SDS011;70753;47.908;11.274;2023-07-09T12:32:11;6.82;;;2.95;;
81273;SDS011;70753;47.908;11.274;2023-07-09T12:34:38;5.78;;;3.20;;
81273;SDS011;70753;47.908;11.274;2023-07-09T12:37:03;6.43;;;2.65;;
81273;SDS011;70753;47.908;11.274;2023-07-09T12:39:29;6.43;;;2.88;;
81273;SDS011;70753;47.908;11.274;2023-07-09T12:41:59;5.60;;;2.72;;
81273;SDS011;70753;47.908;11.274;2023-07-09T12:44:26;6.70;;;2.90;;
81273;SDS011;70753;47.908;11.274;2023-07-09T12:47:02;6.68;;;2.85;;
81273;SDS011;70753;47.908;11.274;2023-07-09T12:49:29;6.75;;;3.22;;
81273;SDS011;70753;47.908;11.274;2023-07-09T12:51:56;7.47;;;2.92;;
81273;SDS011;70753;47.908;11.274;2023-07-09T12:54:23;8.80;;;2.72;;
81273;SDS011;70753;47.908;11.274;2023-07-09T12:56:50;5.70;;;2.97;;
81273;SDS011;70753;47.908;11.274;2023-07-09T12:59:18;6.13;;;2.50;;
81273;SDS011;70753;47.908;11.274;2023-07-09T13:01:49;6.25;;;2.60;;
81273;SDS011;70753;47.908;11.274;2023-07-09T13:04:17;7.75;;;2.85;;
81273;SDS011;70753;47.908;11.274;2023-07-09T13:06:42;9.60;;;4.38;;
81273;SDS011;70753;47.908;11.274;2023-07-09T13:09:11;7.15;;;2.92;;
81273;SDS011;70753;47.908;11.274;2023-07-09T13:11:41;6.88;;;2.47;;
81273;SDS011;70753;47.908;11.274;2023-07-09T13:14:16;7.72;;;3.33;;
81273;SDS011;70753;47.908;11.274;2023-07-09T13:16:43;11.80;;;2.70;;
81273;SDS011;70753;47.908;11.274;2023-07-09T13:19:09;7.72;;;2.42;;
81273;SDS011;70753;47.908;11.274;2023-07-09T13:21:36;7.28;;;2.67;;
81273;SDS011;70753;47.908;11.274;2023-07-09T13:24:04;5.68;;;2.35;;
81273;SDS011;70753;47.908;11.274;2023-07-09T13:26:38;6.88;;;2.88;;
81273;SDS011;70753;47.908;11.274;2023-07-09T13:29:04;6.70;;;2.95;;
81273;SDS011;70753;47.908;11.274;2023-07-09T13:31:38;6.10;;;2.60;;
81273;SDS011;70753;47.908;11.274;2023-07-09T13:34:04;5.47;;;2.72;;
81273;SDS011;70753;47.908;11.274;2023-07-09T13:36:40;6.90;;;2.50;;
81273;SDS011;70753;47.908;11.274;2023-07-09T13:39:07;6.18;;;2.60;;
81273;SDS011;70753;47.908;11.274;2023-07-09T13:41:34;5.00;;;2.45;;
81273;SDS011;70753;47.908;11.274;2023-07-09T13:44:01;5.75;;;2.60;;
81273;SDS011;70753;47.908;11.274;2023-07-09T13:46:26;7.03;;;2.85;;
81273;SDS011;70753;47.908;11.274;2023-07-09T13:48:52;5.63;;;2.60;;
81273;SDS011;70753;47.908;11.274;2023-07-09T13:51:18;7.28;;;2.63;;
81273;SDS011;70753;47.908;11.274;2023-07-09T13:53:46;6.65;;;3.00;;
81273;SDS011;70753;47.908;11.274;2023-07-09T13:56:13;5.78;;;2.50;;
81273;SDS011;70753;47.908;11.274;2023-07-09T13:58:39;4.70;;;2.42;;
81273;SDS011;70753;47.908;11.274;2023-07-09T14:01:08;5.28;;;2.60;;
81273;SDS011;70753;47.908;11.274;2023-07-09T14:03:37;5.28;;;2.33;;
81273;SDS011;70753;47.908;11.274;2023-07-09T14:06:02;5.82;;;2.83;;
81273;SDS011;70753;47.908;11.274;2023-07-09T14:08:28;6.28;;;2.45;;
81273;SDS011;70753;47.908;11.274;2023-07-09T14:10:56;6.88;;;2.42;;
81273;SDS011;70753;47.908;11.274;2023-07-09T14:13:22;4.57;;;2.30;;
81273;SDS011;70753;47.908;11.274;2023-07-09T14:15:49;4.68;;;2.40;;
81273;SDS011;70753;47.908;11.274;2023-07-09T14:18:15;5.60;;;2.58;;
81273;SDS011;70753;47.908;11.274;2023-07-09T14:20:42;7.07;;;2.75;;
81273;SDS011;70753;47.908;11.274;2023-07-09T14:23:08;6.03;;;2.65;;
81273;SDS011;70753;47.908;11.274;2023-07-09T14:25:35;5.93;;;2.95;;
81273;SDS011;70753;47.908;11.274;2023-07-09T14:28:04;7.10;;;2.80;;
81273;SDS011;70753;47.908;11.274;2023-07-09T14:30:33;5.35;;;2.53;;
81273;SDS011;70753;47.908;11.274;2023-07-09T14:32:59;7.10;;;2.72;;
81273;SDS011;70753;47.908;11.274;2023-07-09T14:35:25;7.20;;;2.90;;
81273;SDS011;70753;47.908;11.274;2023-07-09T14:37:51;5.05;;;2.63;;
81273;SDS011;70753;47.908;11.274;2023-07-09T14:40:19;6.80;;;2.75;;
81273;SDS011;70753;47.908;11.274;2023-07-09T14:42:46;6.85;;;2.58;;